Terminal Aerodrome Forecast
Issued by NWS

Home | Current Version | Previous Version | Text Only | Print | Product List | Glossary On
Versions: 1 2 3 4 5 6 7 8 9 10 11 12 13 14 15 16 17 18 19 20 21 22 23 24 25 26 27 28 29 30 31 32 33 34 35 36 37 38
000
FTUS45 KREV 101904 AAA
TAFRNO
TAF AMD
KRNO 101904Z 1019/1118 18018G30KT 6SM -RA BR FEW030 OVC060
     FM102200 25018G28KT P6SM -RA SCT028 OVC050
      TEMPO 1022/1101 5SM RA BR BKN025
     FM110200 29011G18KT P6SM VCSH SCT040 BKN080=

USA.gov is the U.S. government's official web portal to all federal, state and local government web resources and services.